KAKQ/AKQ METAR and TAF weather

Enter ICAO airport designator
Station Type Date Time Source
KAKQ METAR 2019/10/18 05:54 UTC NOAA

KAKQ 180554Z AUTO 00000KT 10SM CLR 07/03 A2988 RMK AO2 SLP118 T00720028 10111 20067 51003


Station Type Date Time Source
KAKQ Decoded METAR 2019/10/18 05:54 UTC NOAA

WAKEFIELD MUNICIPAL AIRPOR, VA, United States (KAKQ) 36-59N 077-00W 33M
Oct 18, 2019 - 01:54 AM EDT / 2019.10.18 0554 UTC
Wind: Calm:0
Visibility: 10 mile(s):0
Sky conditions: clear
Temperature: 45.0 F (7.2 C)
Dew Point: 37.0 F (2.8 C)
Relative Humidity: 73%
Pressure (altimeter): 29.88 in. Hg (1011 hPa)
Pressure tendency: 0.01 inches (0.3 hPa) higher than three hours ago
ob: KAKQ 180554Z AUTO 00000KT 10SM CLR 07/03 A2988 RMK AO2 SLP118 T00720028 10111 20067 51003
cycle: 6

Station Type Date Time Source
KAKQ TAF UTC NOAA

Error!

Example: see airport list